sensor_id;sensor_type;location;lat;lon;timestamp;P1;durP1;ratioP1;P2;durP2;ratioP2
69629;SDS011;56857;52.212;5.496;2023-01-29T00:01:42;21.48;;;13.50;;
69629;SDS011;56857;52.212;5.496;2023-01-29T00:04:08;23.02;;;12.82;;
69629;SDS011;56857;52.212;5.496;2023-01-29T00:06:33;24.00;;;13.43;;
69629;SDS011;56857;52.212;5.496;2023-01-29T00:08:58;23.25;;;13.00;;
69629;SDS011;56857;52.212;5.496;2023-01-29T00:11:24;20.30;;;12.27;;
69629;SDS011;56857;52.212;5.496;2023-01-29T00:13:49;22.27;;;14.63;;
69629;SDS011;56857;52.212;5.496;2023-01-29T00:16:15;25.52;;;13.82;;
69629;SDS011;56857;52.212;5.496;2023-01-29T00:18:40;20.92;;;13.05;;
69629;SDS011;56857;52.212;5.496;2023-01-29T00:21:13;20.10;;;10.93;;
69629;SDS011;56857;52.212;5.496;2023-01-29T00:23:42;21.15;;;12.10;;
69629;SDS011;56857;52.212;5.496;2023-01-29T00:26:08;25.98;;;14.25;;
69629;SDS011;56857;52.212;5.496;2023-01-29T00:28:34;20.58;;;12.65;;
69629;SDS011;56857;52.212;5.496;2023-01-29T00:31:06;24.40;;;13.77;;
69629;SDS011;56857;52.212;5.496;2023-01-29T00:33:36;23.65;;;13.65;;
69629;SDS011;56857;52.212;5.496;2023-01-29T00:36:05;23.05;;;13.85;;
69629;SDS011;56857;52.212;5.496;2023-01-29T00:38:32;21.10;;;12.30;;
69629;SDS011;56857;52.212;5.496;2023-01-29T00:41:04;22.63;;;13.07;;
69629;SDS011;56857;52.212;5.496;2023-01-29T00:43:39;25.20;;;14.20;;
69629;SDS011;56857;52.212;5.496;2023-01-29T00:46:04;23.33;;;12.07;;
69629;SDS011;56857;52.212;5.496;2023-01-29T00:48:30;26.07;;;13.77;;
69629;SDS011;56857;52.212;5.496;2023-01-29T00:50:55;22.98;;;12.75;;
69629;SDS011;56857;52.212;5.496;2023-01-29T00:53:20;20.23;;;12.57;;
69629;SDS011;56857;52.212;5.496;2023-01-29T00:55:46;23.00;;;11.90;;
69629;SDS011;56857;52.212;5.496;2023-01-29T00:58:11;24.10;;;12.90;;
69629;SDS011;56857;52.212;5.496;2023-01-29T01:00:36;23.07;;;13.30;;
69629;SDS011;56857;52.212;5.496;2023-01-29T01:03:01;25.63;;;13.45;;
69629;SDS011;56857;52.212;5.496;2023-01-29T01:05:27;22.33;;;13.13;;
69629;SDS011;56857;52.212;5.496;2023-01-29T01:07:54;21.65;;;11.73;;
69629;SDS011;56857;52.212;5.496;2023-01-29T01:10:21;26.45;;;14.75;;
69629;SDS011;56857;52.212;5.496;2023-01-29T01:12:55;24.75;;;13.18;;
69629;SDS011;56857;52.212;5.496;2023-01-29T01:15:27;23.08;;;13.98;;
69629;SDS011;56857;52.212;5.496;2023-01-29T01:17:54;24.05;;;15.18;;
69629;SDS011;56857;52.212;5.496;2023-01-29T01:20:22;23.70;;;13.45;;
69629;SDS011;56857;52.212;5.496;2023-01-29T01:22:49;23.58;;;14.75;;
69629;SDS011;56857;52.212;5.496;2023-01-29T01:25:14;23.27;;;15.20;;
69629;SDS011;56857;52.212;5.496;2023-01-29T01:27:40;25.90;;;16.08;;
69629;SDS011;56857;52.212;5.496;2023-01-29T01:30:10;25.27;;;13.75;;
69629;SDS011;56857;52.212;5.496;2023-01-29T01:32:38;27.35;;;15.30;;
69629;SDS011;56857;52.212;5.496;2023-01-29T01:35:04;23.92;;;13.68;;
69629;SDS011;56857;52.212;5.496;2023-01-29T01:37:29;24.80;;;14.50;;
69629;SDS011;56857;52.212;5.496;2023-01-29T01:39:55;25.55;;;14.35;;
69629;SDS011;56857;52.212;5.496;2023-01-29T01:42:20;24.27;;;12.93;;
69629;SDS011;56857;52.212;5.496;2023-01-29T01:50:32;24.38;;;14.25;;
69629;SDS011;56857;52.212;5.496;2023-01-29T01:53:03;24.73;;;14.80;;
69629;SDS011;56857;52.212;5.496;2023-01-29T01:55:32;28.15;;;13.63;;
69629;SDS011;56857;52.212;5.496;2023-01-29T01:58:05;24.95;;;15.25;;
69629;SDS011;56857;52.212;5.496;2023-01-29T02:00:50;27.10;;;15.13;;
69629;SDS011;56857;52.212;5.496;2023-01-29T02:03:16;25.48;;;15.48;;
69629;SDS011;56857;52.212;5.496;2023-01-29T02:05:44;24.00;;;14.00;;
69629;SDS011;56857;52.212;5.496;2023-01-29T02:08:09;23.33;;;15.10;;
69629;SDS011;56857;52.212;5.496;2023-01-29T02:10:38;24.08;;;14.82;;
69629;SDS011;56857;52.212;5.496;2023-01-29T02:13:07;24.33;;;14.20;;
69629;SDS011;56857;52.212;5.496;2023-01-29T02:15:33;22.83;;;12.85;;
69629;SDS011;56857;52.212;5.496;2023-01-29T02:17:59;27.15;;;15.13;;
69629;SDS011;56857;52.212;5.496;2023-01-29T02:20:25;21.92;;;13.35;;
69629;SDS011;56857;52.212;5.496;2023-01-29T02:25:23;25.80;;;14.45;;
69629;SDS011;56857;52.212;5.496;2023-01-29T02:28:13;24.40;;;14.60;;
69629;SDS011;56857;52.212;5.496;2023-01-29T02:36:31;23.85;;;13.80;;
69629;SDS011;56857;52.212;5.496;2023-01-29T02:39:50;21.90;;;12.65;;
69629;SDS011;56857;52.212;5.496;2023-01-29T02:42:24;27.08;;;13.98;;
69629;SDS011;56857;52.212;5.496;2023-01-29T02:50:04;23.08;;;13.32;;
69629;SDS011;56857;52.212;5.496;2023-01-29T02:52:38;24.67;;;13.48;;
69629;SDS011;56857;52.212;5.496;2023-01-29T02:55:11;22.88;;;12.95;;
69629;SDS011;56857;52.212;5.496;2023-01-29T02:57:42;21.33;;;12.73;;
69629;SDS011;56857;52.212;5.496;2023-01-29T03:08:33;23.55;;;13.80;;
69629;SDS011;56857;52.212;5.496;2023-01-29T03:11:04;28.83;;;14.35;;
69629;SDS011;56857;52.212;5.496;2023-01-29T03:13:34;23.80;;;13.98;;
69629;SDS011;56857;52.212;5.496;2023-01-29T03:16:07;23.48;;;13.10;;
69629;SDS011;56857;52.212;5.496;2023-01-29T03:18:58;24.55;;;14.20;;
69629;SDS011;56857;52.212;5.496;2023-01-29T03:21:30;25.80;;;14.40;;
69629;SDS011;56857;52.212;5.496;2023-01-29T03:24:08;23.75;;;14.65;;
69629;SDS011;56857;52.212;5.496;2023-01-29T03:26:36;26.30;;;14.55;;
69629;SDS011;56857;52.212;5.496;2023-01-29T03:29:02;24.95;;;14.90;;
69629;SDS011;56857;52.212;5.496;2023-01-29T03:31:29;24.48;;;15.40;;
69629;SDS011;56857;52.212;5.496;2023-01-29T03:34:15;25.33;;;13.98;;
69629;SDS011;56857;52.212;5.496;2023-01-29T03:36:51;24.13;;;14.68;;
69629;SDS011;56857;52.212;5.496;2023-01-29T03:39:56;25.10;;;13.68;;
69629;SDS011;56857;52.212;5.496;2023-01-29T03:45:18;25.52;;;15.40;;
69629;SDS011;56857;52.212;5.496;2023-01-29T03:47:55;26.15;;;14.18;;
69629;SDS011;56857;52.212;5.496;2023-01-29T03:55:54;28.77;;;16.13;;
69629;SDS011;56857;52.212;5.496;2023-01-29T03:58:28;28.13;;;16.88;;
69629;SDS011;56857;52.212;5.496;2023-01-29T04:01:17;27.55;;;16.05;;
69629;SDS011;56857;52.212;5.496;2023-01-29T04:03:47;29.60;;;16.30;;
69629;SDS011;56857;52.212;5.496;2023-01-29T04:06:22;31.17;;;17.27;;
69629;SDS011;56857;52.212;5.496;2023-01-29T04:08:58;29.48;;;16.77;;
69629;SDS011;56857;52.212;5.496;2023-01-29T04:11:25;28.13;;;16.05;;
69629;SDS011;56857;52.212;5.496;2023-01-29T04:13:52;31.52;;;17.60;;
69629;SDS011;56857;52.212;5.496;2023-01-29T04:16:23;33.25;;;16.77;;
69629;SDS011;56857;52.212;5.496;2023-01-29T04:18:56;32.50;;;18.48;;
69629;SDS011;56857;52.212;5.496;2023-01-29T04:21:23;30.85;;;17.85;;
69629;SDS011;56857;52.212;5.496;2023-01-29T04:23:49;28.77;;;17.23;;
69629;SDS011;56857;52.212;5.496;2023-01-29T04:26:23;31.65;;;17.63;;
69629;SDS011;56857;52.212;5.496;2023-01-29T04:31:39;30.13;;;17.98;;
69629;SDS011;56857;52.212;5.496;2023-01-29T04:34:27;30.73;;;16.63;;
69629;SDS011;56857;52.212;5.496;2023-01-29T04:39:43;35.42;;;17.05;;
69629;SDS011;56857;52.212;5.496;2023-01-29T04:45:14;30.63;;;17.38;;
69629;SDS011;56857;52.212;5.496;2023-01-29T04:48:22;29.42;;;17.95;;
69629;SDS011;56857;52.212;5.496;2023-01-29T04:50:54;30.25;;;17.70;;
69629;SDS011;56857;52.212;5.496;2023-01-29T04:56:22;31.85;;;18.25;;
69629;SDS011;56857;52.212;5.496;2023-01-29T04:58:57;32.47;;;17.73;;
69629;SDS011;56857;52.212;5.496;2023-01-29T05:01:35;31.05;;;18.70;;
69629;SDS011;56857;52.212;5.496;2023-01-29T05:04:04;31.75;;;17.75;;
69629;SDS011;56857;52.212;5.496;2023-01-29T05:06:33;32.90;;;18.65;;
69629;SDS011;56857;52.212;5.496;2023-01-29T05:09:01;30.45;;;18.63;;
69629;SDS011;56857;52.212;5.496;2023-01-29T05:11:27;29.75;;;16.92;;
69629;SDS011;56857;52.212;5.496;2023-01-29T05:13:56;32.25;;;17.20;;
69629;SDS011;56857;52.212;5.496;2023-01-29T05:16:24;31.40;;;18.23;;
69629;SDS011;56857;52.212;5.496;2023-01-29T05:18:53;30.50;;;17.92;;
69629;SDS011;56857;52.212;5.496;2023-01-29T05:21:19;29.65;;;16.67;;
69629;SDS011;56857;52.212;5.496;2023-01-29T05:23:45;30.70;;;17.50;;
69629;SDS011;56857;52.212;5.496;2023-01-29T05:26:11;32.63;;;17.53;;
69629;SDS011;56857;52.212;5.496;2023-01-29T05:28:36;30.58;;;17.70;;
69629;SDS011;56857;52.212;5.496;2023-01-29T05:31:01;31.63;;;17.40;;
69629;SDS011;56857;52.212;5.496;2023-01-29T05:33:28;33.70;;;18.83;;
69629;SDS011;56857;52.212;5.496;2023-01-29T05:35:55;33.67;;;18.90;;
69629;SDS011;56857;52.212;5.496;2023-01-29T05:38:22;33.67;;;16.95;;
69629;SDS011;56857;52.212;5.496;2023-01-29T05:40:48;32.75;;;17.30;;
69629;SDS011;56857;52.212;5.496;2023-01-29T05:43:21;32.17;;;17.67;;
69629;SDS011;56857;52.212;5.496;2023-01-29T05:45:54;33.50;;;16.58;;
69629;SDS011;56857;52.212;5.496;2023-01-29T05:48:25;33.67;;;19.90;;
69629;SDS011;56857;52.212;5.496;2023-01-29T05:50:51;32.38;;;18.38;;
69629;SDS011;56857;52.212;5.496;2023-01-29T05:53:16;29.33;;;15.73;;
69629;SDS011;56857;52.212;5.496;2023-01-29T05:55:45;33.15;;;17.98;;
69629;SDS011;56857;52.212;5.496;2023-01-29T05:58:11;31.38;;;18.23;;
69629;SDS011;56857;52.212;5.496;2023-01-29T06:00:37;31.40;;;18.33;;
69629;SDS011;56857;52.212;5.496;2023-01-29T06:03:02;34.17;;;18.95;;
69629;SDS011;56857;52.212;5.496;2023-01-29T06:05:28;30.67;;;17.13;;
69629;SDS011;56857;52.212;5.496;2023-01-29T06:07:53;34.03;;;17.33;;
69629;SDS011;56857;52.212;5.496;2023-01-29T06:10:18;29.90;;;17.75;;
69629;SDS011;56857;52.212;5.496;2023-01-29T06:12:44;31.25;;;18.88;;
69629;SDS011;56857;52.212;5.496;2023-01-29T06:15:10;34.20;;;18.77;;
69629;SDS011;56857;52.212;5.496;2023-01-29T06:17:36;34.30;;;19.42;;
69629;SDS011;56857;52.212;5.496;2023-01-29T06:20:02;31.40;;;18.73;;
69629;SDS011;56857;52.212;5.496;2023-01-29T06:22:28;31.92;;;18.55;;
69629;SDS011;56857;52.212;5.496;2023-01-29T06:24:53;32.95;;;19.27;;
69629;SDS011;56857;52.212;5.496;2023-01-29T06:27:20;34.70;;;20.13;;
69629;SDS011;56857;52.212;5.496;2023-01-29T06:29:45;36.50;;;19.30;;
69629;SDS011;56857;52.212;5.496;2023-01-29T06:32:10;33.85;;;20.00;;
69629;SDS011;56857;52.212;5.496;2023-01-29T06:34:36;36.55;;;20.45;;
69629;SDS011;56857;52.212;5.496;2023-01-29T06:37:01;30.67;;;18.05;;
69629;SDS011;56857;52.212;5.496;2023-01-29T06:39:26;33.50;;;18.25;;
69629;SDS011;56857;52.212;5.496;2023-01-29T06:41:52;33.33;;;19.02;;
69629;SDS011;56857;52.212;5.496;2023-01-29T06:44:17;33.78;;;17.77;;
69629;SDS011;56857;52.212;5.496;2023-01-29T06:46:42;30.58;;;17.80;;
69629;SDS011;56857;52.212;5.496;2023-01-29T06:49:08;29.80;;;16.10;;
69629;SDS011;56857;52.212;5.496;2023-01-29T06:51:33;33.33;;;20.50;;
69629;SDS011;56857;52.212;5.496;2023-01-29T06:53:59;31.43;;;18.40;;
69629;SDS011;56857;52.212;5.496;2023-01-29T06:56:24;29.35;;;18.20;;
69629;SDS011;56857;52.212;5.496;2023-01-29T06:58:50;34.05;;;18.52;;
69629;SDS011;56857;52.212;5.496;2023-01-29T07:01:15;33.65;;;18.42;;
69629;SDS011;56857;52.212;5.496;2023-01-29T07:03:41;29.10;;;18.30;;
69629;SDS011;56857;52.212;5.496;2023-01-29T07:06:06;30.02;;;17.30;;
69629;SDS011;56857;52.212;5.496;2023-01-29T07:08:35;32.05;;;18.08;;
69629;SDS011;56857;52.212;5.496;2023-01-29T07:11:02;30.73;;;17.48;;
69629;SDS011;56857;52.212;5.496;2023-01-29T07:13:28;30.00;;;17.00;;
69629;SDS011;56857;52.212;5.496;2023-01-29T07:15:56;35.50;;;17.92;;
69629;SDS011;56857;52.212;5.496;2023-01-29T07:18:22;30.95;;;17.65;;
69629;SDS011;56857;52.212;5.496;2023-01-29T07:20:47;30.73;;;18.40;;
69629;SDS011;56857;52.212;5.496;2023-01-29T07:25:39;28.83;;;17.27;;
69629;SDS011;56857;52.212;5.496;2023-01-29T07:28:05;29.25;;;16.77;;
69629;SDS011;56857;52.212;5.496;2023-01-29T07:30:32;30.52;;;18.08;;
69629;SDS011;56857;52.212;5.496;2023-01-29T07:33:02;33.05;;;19.95;;
69629;SDS011;56857;52.212;5.496;2023-01-29T07:35:29;31.95;;;18.88;;
69629;SDS011;56857;52.212;5.496;2023-01-29T07:37:55;28.38;;;17.92;;
69629;SDS011;56857;52.212;5.496;2023-01-29T07:42:45;28.80;;;18.33;;
69629;SDS011;56857;52.212;5.496;2023-01-29T07:47:37;28.70;;;18.33;;
69629;SDS011;56857;52.212;5.496;2023-01-29T07:50:03;30.50;;;19.17;;
69629;SDS011;56857;52.212;5.496;2023-01-29T07:52:29;26.40;;;18.00;;
69629;SDS011;56857;52.212;5.496;2023-01-29T07:54:56;29.70;;;16.08;;
69629;SDS011;56857;52.212;5.496;2023-01-29T07:57:21;33.53;;;17.10;;
69629;SDS011;56857;52.212;5.496;2023-01-29T07:59:46;27.67;;;17.60;;
69629;SDS011;56857;52.212;5.496;2023-01-29T08:02:12;31.42;;;19.38;;
69629;SDS011;56857;52.212;5.496;2023-01-29T08:07:03;28.38;;;19.05;;
69629;SDS011;56857;52.212;5.496;2023-01-29T08:09:28;27.70;;;17.75;;
69629;SDS011;56857;52.212;5.496;2023-01-29T08:11:54;31.25;;;17.88;;
69629;SDS011;56857;52.212;5.496;2023-01-29T08:14:19;29.93;;;18.40;;
69629;SDS011;56857;52.212;5.496;2023-01-29T08:16:44;30.02;;;18.90;;
69629;SDS011;56857;52.212;5.496;2023-01-29T08:19:10;28.92;;;17.00;;
69629;SDS011;56857;52.212;5.496;2023-01-29T08:21:35;27.35;;;17.88;;
69629;SDS011;56857;52.212;5.496;2023-01-29T08:24:00;29.30;;;18.40;;
69629;SDS011;56857;52.212;5.496;2023-01-29T08:26:26;28.80;;;17.90;;
69629;SDS011;56857;52.212;5.496;2023-01-29T08:28:51;30.05;;;20.23;;
69629;SDS011;56857;52.212;5.496;2023-01-29T08:31:17;30.33;;;17.73;;
69629;SDS011;56857;52.212;5.496;2023-01-29T08:33:43;28.80;;;19.08;;
69629;SDS011;56857;52.212;5.496;2023-01-29T08:36:09;31.27;;;17.90;;
69629;SDS011;56857;52.212;5.496;2023-01-29T08:38:34;26.33;;;16.13;;
69629;SDS011;56857;52.212;5.496;2023-01-29T08:41:00;29.55;;;18.38;;
69629;SDS011;56857;52.212;5.496;2023-01-29T08:43:25;31.38;;;18.63;;
69629;SDS011;56857;52.212;5.496;2023-01-29T08:45:50;29.67;;;17.85;;
69629;SDS011;56857;52.212;5.496;2023-01-29T08:48:16;26.17;;;15.45;;
69629;SDS011;56857;52.212;5.496;2023-01-29T08:50:41;25.43;;;15.47;;
69629;SDS011;56857;52.212;5.496;2023-01-29T08:53:07;24.52;;;16.10;;
69629;SDS011;56857;52.212;5.496;2023-01-29T08:55:37;30.55;;;17.15;;
69629;SDS011;56857;52.212;5.496;2023-01-29T08:58:04;28.83;;;15.27;;
69629;SDS011;56857;52.212;5.496;2023-01-29T09:00:31;27.02;;;17.48;;
69629;SDS011;56857;52.212;5.496;2023-01-29T09:02:57;25.27;;;16.63;;
69629;SDS011;56857;52.212;5.496;2023-01-29T09:05:22;25.45;;;17.00;;
69629;SDS011;56857;52.212;5.496;2023-01-29T09:07:47;27.48;;;15.13;;
69629;SDS011;56857;52.212;5.496;2023-01-29T09:10:13;27.52;;;16.88;;
69629;SDS011;56857;52.212;5.496;2023-01-29T09:12:38;27.25;;;17.67;;
69629;SDS011;56857;52.212;5.496;2023-01-29T09:15:04;24.63;;;16.17;;
69629;SDS011;56857;52.212;5.496;2023-01-29T09:17:29;28.17;;;17.35;;
69629;SDS011;56857;52.212;5.496;2023-01-29T09:19:54;28.30;;;17.57;;
69629;SDS011;56857;52.212;5.496;2023-01-29T09:22:20;27.17;;;18.03;;
69629;SDS011;56857;52.212;5.496;2023-01-29T09:24:45;27.97;;;16.77;;
69629;SDS011;56857;52.212;5.496;2023-01-29T09:27:10;33.00;;;19.00;;
69629;SDS011;56857;52.212;5.496;2023-01-29T09:29:35;29.05;;;17.08;;
69629;SDS011;56857;52.212;5.496;2023-01-29T09:32:02;26.70;;;16.85;;
69629;SDS011;56857;52.212;5.496;2023-01-29T09:34:28;31.38;;;17.55;;
69629;SDS011;56857;52.212;5.496;2023-01-29T09:36:53;26.83;;;16.95;;
69629;SDS011;56857;52.212;5.496;2023-01-29T09:39:19;26.95;;;15.73;;
69629;SDS011;56857;52.212;5.496;2023-01-29T09:41:53;27.00;;;14.80;;
69629;SDS011;56857;52.212;5.496;2023-01-29T09:47:21;27.67;;;16.42;;
69629;SDS011;56857;52.212;5.496;2023-01-29T09:49:59;29.88;;;16.92;;
69629;SDS011;56857;52.212;5.496;2023-01-29T09:52:28;27.10;;;16.35;;
69629;SDS011;56857;52.212;5.496;2023-01-29T10:00:23;29.48;;;17.85;;
69629;SDS011;56857;52.212;5.496;2023-01-29T10:03:14;27.95;;;15.52;;
69629;SDS011;56857;52.212;5.496;2023-01-29T10:08:22;28.60;;;17.35;;
69629;SDS011;56857;52.212;5.496;2023-01-29T10:10:50;26.58;;;17.52;;
69629;SDS011;56857;52.212;5.496;2023-01-29T10:13:41;26.25;;;16.63;;
69629;SDS011;56857;52.212;5.496;2023-01-29T10:16:17;32.05;;;17.13;;
69629;SDS011;56857;52.212;5.496;2023-01-29T10:21:31;28.87;;;17.27;;
69629;SDS011;56857;52.212;5.496;2023-01-29T10:24:21;31.92;;;19.63;;
69629;SDS011;56857;52.212;5.496;2023-01-29T10:26:56;30.08;;;17.13;;
69629;SDS011;56857;52.212;5.496;2023-01-29T10:29:22;28.25;;;18.40;;
69629;SDS011;56857;52.212;5.496;2023-01-29T10:31:54;27.10;;;17.70;;
69629;SDS011;56857;52.212;5.496;2023-01-29T10:36:55;31.15;;;17.27;;
69629;SDS011;56857;52.212;5.496;2023-01-29T10:39:22;31.35;;;18.55;;
69629;SDS011;56857;52.212;5.496;2023-01-29T11:01:09;30.33;;;18.75;;
69629;SDS011;56857;52.212;5.496;2023-01-29T11:03:35;29.58;;;17.92;;
69629;SDS011;56857;52.212;5.496;2023-01-29T11:08:41;32.55;;;19.40;;
69629;SDS011;56857;52.212;5.496;2023-01-29T11:11:16;28.42;;;18.48;;
69629;SDS011;56857;52.212;5.496;2023-01-29T11:14:05;30.70;;;19.83;;
69629;SDS011;56857;52.212;5.496;2023-01-29T11:16:31;31.05;;;20.38;;
69629;SDS011;56857;52.212;5.496;2023-01-29T11:19:05;35.25;;;20.58;;
69629;SDS011;56857;52.212;5.496;2023-01-29T11:21:30;39.70;;;21.75;;
69629;SDS011;56857;52.212;5.496;2023-01-29T11:24:06;34.77;;;21.60;;
69629;SDS011;56857;52.212;5.496;2023-01-29T11:26:32;33.75;;;20.20;;
69629;SDS011;56857;52.212;5.496;2023-01-29T11:29:02;33.55;;;19.65;;
69629;SDS011;56857;52.212;5.496;2023-01-29T11:31:28;34.08;;;18.52;;
69629;SDS011;56857;52.212;5.496;2023-01-29T11:34:20;36.70;;;20.92;;
69629;SDS011;56857;52.212;5.496;2023-01-29T11:37:33;39.55;;;24.60;;
69629;SDS011;56857;52.212;5.496;2023-01-29T11:39:42;62.55;;;31.48;;
69629;SDS011;56857;52.212;5.496;2023-01-29T11:42:13;37.33;;;21.35;;
69629;SDS011;56857;52.212;5.496;2023-01-29T11:44:43;35.55;;;21.20;;
69629;SDS011;56857;52.212;5.496;2023-01-29T11:47:10;35.27;;;19.67;;
69629;SDS011;56857;52.212;5.496;2023-01-29T11:49:36;36.58;;;21.30;;
69629;SDS011;56857;52.212;5.496;2023-01-29T11:52:03;35.70;;;21.70;;
69629;SDS011;56857;52.212;5.496;2023-01-29T11:54:34;34.20;;;20.95;;
69629;SDS011;56857;52.212;5.496;2023-01-29T11:57:14;34.90;;;20.35;;
69629;SDS011;56857;52.212;5.496;2023-01-29T11:59:48;38.58;;;20.95;;
69629;SDS011;56857;52.212;5.496;2023-01-29T12:02:30;37.33;;;20.73;;
69629;SDS011;56857;52.212;5.496;2023-01-29T12:05:33;40.83;;;21.67;;
69629;SDS011;56857;52.212;5.496;2023-01-29T12:07:52;36.53;;;21.15;;
69629;SDS011;56857;52.212;5.496;2023-01-29T12:15:35;37.50;;;21.75;;
69629;SDS011;56857;52.212;5.496;2023-01-29T12:18:07;44.33;;;22.63;;
69629;SDS011;56857;52.212;5.496;2023-01-29T12:20:43;37.35;;;22.58;;
69629;SDS011;56857;52.212;5.496;2023-01-29T12:25:59;41.08;;;24.25;;
69629;SDS011;56857;52.212;5.496;2023-01-29T12:37:15;37.83;;;21.92;;
69629;SDS011;56857;52.212;5.496;2023-01-29T12:39:47;38.55;;;21.65;;
69629;SDS011;56857;52.212;5.496;2023-01-29T12:42:15;36.17;;;21.02;;
69629;SDS011;56857;52.212;5.496;2023-01-29T12:44:48;40.30;;;23.23;;
69629;SDS011;56857;52.212;5.496;2023-01-29T12:47:21;37.13;;;20.98;;
69629;SDS011;56857;52.212;5.496;2023-01-29T12:49:49;36.25;;;21.88;;
69629;SDS011;56857;52.212;5.496;2023-01-29T12:52:20;38.33;;;22.10;;
69629;SDS011;56857;52.212;5.496;2023-01-29T12:54:59;36.85;;;20.40;;
69629;SDS011;56857;52.212;5.496;2023-01-29T13:00:32;39.38;;;23.45;;
69629;SDS011;56857;52.212;5.496;2023-01-29T13:05:43;39.13;;;22.23;;
69629;SDS011;56857;52.212;5.496;2023-01-29T13:08:20;38.15;;;21.05;;
69629;SDS011;56857;52.212;5.496;2023-01-29T13:10:51;39.35;;;22.33;;
69629;SDS011;56857;52.212;5.496;2023-01-29T13:13:29;38.05;;;23.08;;
69629;SDS011;56857;52.212;5.496;2023-01-29T13:15:59;40.92;;;21.27;;
69629;SDS011;56857;52.212;5.496;2023-01-29T13:18:32;41.83;;;23.65;;
69629;SDS011;56857;52.212;5.496;2023-01-29T13:21:04;37.85;;;21.65;;
69629;SDS011;56857;52.212;5.496;2023-01-29T13:23:36;38.72;;;22.75;;
69629;SDS011;56857;52.212;5.496;2023-01-29T13:26:06;41.38;;;21.17;;
69629;SDS011;56857;52.212;5.496;2023-01-29T13:28:32;39.95;;;21.95;;
69629;SDS011;56857;52.212;5.496;2023-01-29T13:33:42;40.38;;;23.35;;
69629;SDS011;56857;52.212;5.496;2023-01-29T13:36:13;39.75;;;23.05;;
69629;SDS011;56857;52.212;5.496;2023-01-29T13:38:44;38.70;;;22.70;;
69629;SDS011;56857;52.212;5.496;2023-01-29T13:41:09;37.67;;;22.88;;
69629;SDS011;56857;52.212;5.496;2023-01-29T13:43:36;37.20;;;22.33;;
69629;SDS011;56857;52.212;5.496;2023-01-29T13:46:13;40.78;;;23.10;;
69629;SDS011;56857;52.212;5.496;2023-01-29T13:48:44;41.50;;;24.05;;
69629;SDS011;56857;52.212;5.496;2023-01-29T13:51:13;40.45;;;23.08;;
69629;SDS011;56857;52.212;5.496;2023-01-29T13:53:42;41.20;;;23.90;;
69629;SDS011;56857;52.212;5.496;2023-01-29T13:58:59;42.58;;;22.85;;
69629;SDS011;56857;52.212;5.496;2023-01-29T14:06:52;42.55;;;24.13;;
69629;SDS011;56857;52.212;5.496;2023-01-29T14:12:03;41.60;;;21.30;;
69629;SDS011;56857;52.212;5.496;2023-01-29T14:14:50;36.78;;;22.52;;
69629;SDS011;56857;52.212;5.496;2023-01-29T14:17:16;38.70;;;23.10;;
69629;SDS011;56857;52.212;5.496;2023-01-29T14:19:50;42.10;;;23.27;;
69629;SDS011;56857;52.212;5.496;2023-01-29T14:22:20;37.95;;;22.40;;
69629;SDS011;56857;52.212;5.496;2023-01-29T14:24:49;36.72;;;19.83;;
69629;SDS011;56857;52.212;5.496;2023-01-29T14:27:20;37.15;;;23.17;;
69629;SDS011;56857;52.212;5.496;2023-01-29T14:29:47;36.72;;;21.92;;
69629;SDS011;56857;52.212;5.496;2023-01-29T14:32:20;36.63;;;21.75;;
69629;SDS011;56857;52.212;5.496;2023-01-29T14:34:47;38.42;;;21.40;;
69629;SDS011;56857;52.212;5.496;2023-01-29T14:37:28;34.50;;;19.27;;
69629;SDS011;56857;52.212;5.496;2023-01-29T14:40:04;33.40;;;21.45;;
69629;SDS011;56857;52.212;5.496;2023-01-29T14:42:38;34.92;;;21.35;;
69629;SDS011;56857;52.212;5.496;2023-01-29T14:45:36;32.95;;;19.98;;
69629;SDS011;56857;52.212;5.496;2023-01-29T14:48:16;37.08;;;21.98;;
69629;SDS011;56857;52.212;5.496;2023-01-29T14:51:04;36.28;;;21.25;;
69629;SDS011;56857;52.212;5.496;2023-01-29T14:56:35;34.80;;;20.10;;
69629;SDS011;56857;52.212;5.496;2023-01-29T14:59:11;34.38;;;19.55;;
69629;SDS011;56857;52.212;5.496;2023-01-29T15:01:45;35.10;;;20.35;;
69629;SDS011;56857;52.212;5.496;2023-01-29T15:04:16;35.95;;;20.42;;
69629;SDS011;56857;52.212;5.496;2023-01-29T15:07:11;40.40;;;20.13;;
69629;SDS011;56857;52.212;5.496;2023-01-29T15:10:00;30.35;;;18.85;;
69629;SDS011;56857;52.212;5.496;2023-01-29T15:15:36;32.20;;;19.23;;
69629;SDS011;56857;52.212;5.496;2023-01-29T15:18:22;29.85;;;18.63;;
69629;SDS011;56857;52.212;5.496;2023-01-29T15:21:02;34.80;;;20.15;;
69629;SDS011;56857;52.212;5.496;2023-01-29T15:23:29;33.47;;;20.95;;
69629;SDS011;56857;52.212;5.496;2023-01-29T15:25:58;31.80;;;19.27;;
69629;SDS011;56857;52.212;5.496;2023-01-29T15:28:29;34.28;;;20.13;;
69629;SDS011;56857;52.212;5.496;2023-01-29T15:30:56;33.33;;;19.02;;
69629;SDS011;56857;52.212;5.496;2023-01-29T15:33:23;33.17;;;19.23;;
69629;SDS011;56857;52.212;5.496;2023-01-29T15:35:54;32.15;;;19.02;;
69629;SDS011;56857;52.212;5.496;2023-01-29T15:38:21;33.90;;;19.92;;
69629;SDS011;56857;52.212;5.496;2023-01-29T15:41:13;34.83;;;19.80;;
69629;SDS011;56857;52.212;5.496;2023-01-29T15:43:45;35.42;;;20.20;;
69629;SDS011;56857;52.212;5.496;2023-01-29T15:46:19;32.22;;;20.13;;
69629;SDS011;56857;52.212;5.496;2023-01-29T15:48:48;34.45;;;20.13;;
69629;SDS011;56857;52.212;5.496;2023-01-29T15:51:16;36.58;;;20.77;;
69629;SDS011;56857;52.212;5.496;2023-01-29T15:53:48;37.53;;;21.02;;
69629;SDS011;56857;52.212;5.496;2023-01-29T15:56:17;35.33;;;20.83;;
69629;SDS011;56857;52.212;5.496;2023-01-29T15:58:47;33.75;;;19.13;;
69629;SDS011;56857;52.212;5.496;2023-01-29T16:01:14;33.17;;;19.40;;
69629;SDS011;56857;52.212;5.496;2023-01-29T16:03:40;32.20;;;19.52;;
69629;SDS011;56857;52.212;5.496;2023-01-29T16:06:06;33.47;;;19.35;;
69629;SDS011;56857;52.212;5.496;2023-01-29T16:08:32;33.22;;;19.55;;
69629;SDS011;56857;52.212;5.496;2023-01-29T16:10:59;30.73;;;17.77;;
69629;SDS011;56857;52.212;5.496;2023-01-29T16:13:28;31.42;;;19.00;;
69629;SDS011;56857;52.212;5.496;2023-01-29T16:16:18;35.08;;;19.17;;
69629;SDS011;56857;52.212;5.496;2023-01-29T16:18:47;34.35;;;20.63;;
69629;SDS011;56857;52.212;5.496;2023-01-29T16:21:16;35.42;;;17.98;;
69629;SDS011;56857;52.212;5.496;2023-01-29T16:23:48;32.22;;;17.75;;
69629;SDS011;56857;52.212;5.496;2023-01-29T16:26:16;35.08;;;19.63;;
69629;SDS011;56857;52.212;5.496;2023-01-29T16:28:45;34.72;;;20.50;;
69629;SDS011;56857;52.212;5.496;2023-01-29T16:31:11;34.60;;;19.48;;
69629;SDS011;56857;52.212;5.496;2023-01-29T16:33:45;33.13;;;19.38;;
69629;SDS011;56857;52.212;5.496;2023-01-29T16:36:16;36.38;;;20.33;;
69629;SDS011;56857;52.212;5.496;2023-01-29T16:38:49;33.75;;;18.25;;
69629;SDS011;56857;52.212;5.496;2023-01-29T16:43:50;36.03;;;21.08;;
69629;SDS011;56857;52.212;5.496;2023-01-29T16:46:24;38.03;;;20.60;;
69629;SDS011;56857;52.212;5.496;2023-01-29T16:48:49;35.30;;;19.77;;
69629;SDS011;56857;52.212;5.496;2023-01-29T16:51:25;33.92;;;19.60;;
69629;SDS011;56857;52.212;5.496;2023-01-29T16:56:21;35.10;;;19.73;;
69629;SDS011;56857;52.212;5.496;2023-01-29T16:58:48;38.00;;;18.95;;
69629;SDS011;56857;52.212;5.496;2023-01-29T17:01:15;32.10;;;19.15;;